East Fishkill, New York
Current Conditions -  °F | °C
As of 9:53 AM on Thursday 23 Oct 2014 (Local Time) from KPOU Reporting Station
Light Rain Light Rain  
Wind Chill: 44°   Ceiling: 1400
Heat Index: 49°   Visibility: 10mi
Dew Point: 44°   Wind: 14mph
Humidity: 83%   Direction: 360°N
Pressure: 29.75"   Gusts: 22mph
Location:  41.562°N, 73.7865°W
Report Text: KPOU 231353Z 36012G19KT 10SM -RA OVC014 09/07 A2975 RMK AO2 SLP071 P0001 T00940067
Loading
Personal Weather Stations






























Interactive Weather Map
Tropical Storm Tracking
New forecast layout! Learn more

10-Day Weather Forecast

Advertisements
Track Severe Weather on mobile